Latest Weather Observations for Sydney - Observatory Hill

IDN60901

Issued at 12:51 pm EST Friday 24 May 2019 (issued every 10 minutes, with the page automatically refreshed every 10 minutes)

About weather observations | Map of Sydney area stations | Latest observations for Sydney area | Other Formats
Station Details ID: 066062 Name: SYDNEY (OBSERVATORY HILL) Lat: -33.86 Lon: 151.21 Height: 39.0 m
Data from the previous 72 hours. | See also: Recent months at Sydney - Observatory Hill

* Apparent temperature (App Temp) for Sydney - Observatory Hill is calculated using temperature observations collected at Sydney - Observatory Hill and wind observations collected at Fort Denison, as wind observations are not currently provided for Sydney - Observatory Hill.

Date/Time
EST
Temp
°C
App
Temp
°C
Dew
Point
°C
Rel
Hum
%
Delta-T
°C
Wind Press
QNH
hPa
Press
MSL
hPa
Rain since
9am
mm
Dir  Spd
km/h
Gust
km/h
Spd
kts
Gust
kts
24/12:30pm 23.0 22.2 12.9 53 5.8 W 9 - 5 - 1021.2 1021.1 0.0
24/12:00pm 20.3 18.8 12.0 59 4.6 WSW 11 - 6 - 1021.7 1021.6 0.0
24/11:30am 19.1 18.3 12.8 67 3.5 W 9 - 5 - 1022.4 1022.3 0.0
24/11:00am 18.6 17.1 13.2 71 3.0 WNW 13 - 7 - 1023.2 1023.1 0.0
24/10:30am 17.1 14.4 11.8 71 2.9 WNW 17 - 9 - 1023.8 1023.7 0.0
24/10:00am 16.3 13.2 11.7 74 2.5 WNW 19 - 10 - 1024.0 1023.9 0.0
24/09:30am 15.3 11.6 11.5 78 2.0 WNW 22 - 12 - 1024.2 1024.1 0.0
24/09:00am 14.8 11.4 11.4 80 1.8 WNW 20 - 11 - 1024.2 1024.1 0.0
24/08:30am 14.5 11.9 12.0 85 1.4 WNW 17 - 9 - 1024.3 1024.2 0.0
24/08:00am 14.0 11.5 12.2 89 1.0 WNW 17 - 9 - 1024.1 1024.0 0.0
24/07:30am 13.9 11.3 12.1 89 1.0 WNW 17 - 9 - 1024.1 1024.0 0.0
24/07:00am 13.8 11.2 12.0 89 1.0 W 17 - 9 - 1023.8 1023.7 0.0
24/06:30am 13.9 12.1 12.1 89 1.0 W 13 - 7 - 1023.6 1023.5 0.0
24/06:00am 14.0 12.2 12.0 88 1.1 W 13 - 7 - 1023.4 1023.3 0.0
24/05:30am 14.4 12.3 12.4 88 1.1 WNW 15 - 8 - 1023.3 1023.2 0.0
24/05:00am 14.6 12.9 12.5 87 1.1 WNW 13 - 7 - 1023.1 1023.0 0.0
24/04:30am 14.9 12.9 12.8 87 1.2 WNW 15 - 8 - 1023.2 1023.1 0.0
24/04:00am 15.1 13.6 13.0 87 1.2 WNW 13 - 7 - 1023.1 1023.0 0.0
24/03:30am 15.6 13.0 13.3 86 1.3 W 19 - 10 - 1023.4 1023.3 0.0
24/03:00am 16.1 14.5 13.8 86 1.3 W 15 - 8 - 1023.6 1023.5 0.0
24/02:30am 16.1 15.2 13.6 85 1.4 WNW 11 - 6 - 1023.6 1023.5 0.0
24/02:00am 16.5 16.6 14.0 85 1.4 WNW 6 - 3 - 1023.7 1023.6 0.0
24/01:30am 16.5 16.6 13.8 84 1.5 WNW 6 - 3 - 1023.9 1023.8 0.0
24/01:00am 16.6 17.0 13.7 83 1.6 WNW 4 - 2 - 1024.3 1024.2 0.0
24/12:30am 16.8 16.7 13.9 83 1.6 WNW 7 - 4 - 1024.6 1024.5 0.0
24/12:00am 17.0 16.5 13.9 82 1.8 WNW 9 - 5 - 1025.0 1024.9 0.0
 
Date/Time
EST
Temp
°C
App
Temp
°C
Dew
Point
°C
Rel
Hum
%
Delta-T
°C
Wind Press
QNH
hPa
Press
MSL
hPa
Rain since
9am
mm
Dir  Spd
km/h
Gust
km/h
Spd
kts
Gust
kts
23/11:30pm 17.2 16.4 13.9 81 1.9 WNW 11 - 6 - 1025.1 1025.0 0.0
23/11:00pm 17.7 16.7 14.6 82 1.8 W 13 - 7 - 1025.3 1025.2 0.0
23/10:30pm 17.7 17.3 14.2 80 2.0 WNW 9 - 5 - 1025.3 1025.2 0.0
23/10:00pm 17.9 18.1 14.2 79 2.1 NW 6 - 3 - 1025.3 1025.2 0.0
23/09:30pm 18.0 18.0 14.3 79 2.1 WNW 7 - 4 - 1025.7 1025.6 0.0
23/09:00pm 18.3 18.8 14.0 76 2.5 NNW 4 - 2 - 1025.5 1025.4 0.0
23/08:30pm 19.1 19.6 14.1 73 2.9 N 4 - 2 - 1025.5 1025.4 0.0
23/08:00pm 19.3 19.8 14.1 72 3.0 NW 4 - 2 - 1025.4 1025.3 0.0
23/07:30pm 19.7 19.9 14.1 70 3.2 N 6 - 3 - 1025.3 1025.2 0.0
23/07:00pm 20.5 20.8 14.6 69 3.4 NNE 6 - 3 - 1025.2 1025.1 0.0
23/06:30pm 20.6 21.1 14.9 70 3.4 NE 6 - 3 - 1025.1 1025.0 0.0
23/06:00pm 20.7 21.2 15.0 70 3.3 NE 6 - 3 - 1025.0 1024.9 0.0
23/05:30pm 20.8 20.7 14.9 69 3.5 E 9 - 5 - 1024.9 1024.8 0.0
23/05:00pm 20.8 19.8 14.5 67 3.7 E 13 - 7 - 1024.9 1024.8 0.0
23/04:30pm 21.0 19.6 13.4 62 4.4 E 13 - 7 - 1024.8 1024.7 0.0
23/04:00pm 21.5 20.5 13.4 60 4.6 ESE 11 - 6 - 1024.9 1024.8 0.0
23/03:30pm 22.4 21.6 14.0 59 4.9 E 11 - 6 - 1024.7 1024.6 0.0
23/03:00pm 22.8 22.0 14.1 58 5.1 E 11 - 6 - 1024.8 1024.7 0.0
23/02:30pm 22.7 21.7 13.5 56 5.3 ESE 11 - 6 - 1025.1 1025.0 0.0
23/02:00pm 23.0 21.7 13.8 56 5.3 ESE 13 - 7 - 1025.4 1025.3 0.0
23/01:30pm 24.2 23.2 12.2 47 6.9 E 9 - 5 - 1025.6 1025.5 0.0
23/01:00pm 23.4 22.9 12.7 51 6.1 WNW 7 - 4 - 1026.0 1025.9 0.0
23/12:30pm 23.0 22.9 14.0 57 5.3 NW 7 - 4 - 1026.5 1026.4 0.0
23/12:00pm 21.4 20.8 13.6 61 4.5 WNW 9 - 5 - 1026.9 1026.8 0.0
23/11:30am 20.9 20.0 13.8 64 4.1 WNW 11 - 6 - 1027.4 1027.3 0.0
23/11:00am 20.6 20.3 14.3 67 3.6 WNW 9 - 5 - 1027.9 1027.9 0.0
23/10:30am 19.1 17.7 13.5 70 3.2 WNW 13 - 7 - 1028.4 1028.4 0.0
23/10:00am 18.2 15.9 13.1 72 2.9 WNW 17 - 9 - 1028.5 1028.5 0.0
23/09:30am 17.6 14.6 12.5 72 2.8 WNW 20 - 11 - 1028.6 1028.6 0.0
23/09:00am 17.1 14.2 12.4 74 2.6 WNW 19 - 10 - 1028.6 1028.6 0.0
23/08:30am 16.0 12.9 12.2 78 2.1 W 20 - 11 - 1028.7 1028.7 0.0
23/08:00am 15.3 12.2 12.2 82 1.7 WNW 20 - 11 - 1028.6 1028.6 0.0
23/07:30am 14.7 11.7 12.0 84 1.5 WNW 19 - 10 - 1028.2 1028.2 0.0
23/07:00am 14.7 12.0 11.8 83 1.6 WNW 17 - 9 - 1027.9 1027.9 0.0
23/06:30am 14.7 11.7 12.0 84 1.5 WNW 19 - 10 - 1027.8 1027.8 0.0
23/06:00am 14.7 12.4 11.8 83 1.6 WNW 15 - 8 - 1027.5 1027.4 0.0
23/05:30am 15.0 12.4 12.0 82 1.6 WNW 17 - 9 - 1027.3 1027.2 0.0
23/05:00am 15.2 13.4 12.0 81 1.7 WNW 13 - 7 - 1027.3 1027.2 0.0
23/04:30am 15.4 12.9 12.2 81 1.7 WNW 17 - 9 - 1027.3 1027.2 0.0
23/04:00am 15.6 13.4 12.2 80 1.8 WNW 15 - 8 - 1027.1 1027.0 0.0
23/03:30am 16.2 14.3 12.9 81 1.8 WNW 15 - 8 - 1027.3 1027.2 0.0
23/03:00am 16.4 14.5 13.1 81 1.8 WNW 15 - 8 - 1027.2 1027.1 0.0
23/02:30am 16.5 14.7 13.2 81 1.8 WNW 15 - 8 - 1027.2 1027.1 0.0
23/02:00am 16.6 14.8 13.3 81 1.8 W 15 - 8 - 1027.5 1027.4 0.0
23/01:30am 16.6 14.4 13.3 81 1.9 WNW 17 - 9 - 1027.5 1027.4 0.0
23/01:00am 16.8 15.1 13.5 81 1.8 WNW 15 - 8 - 1027.5 1027.4 0.0
23/12:30am 16.9 15.6 13.8 82 1.8 WNW 13 - 7 - 1027.6 1027.5 0.0
23/12:00am 16.8 14.7 13.7 82 1.7 W 17 - 9 - 1027.9 1027.9 0.0
 
Date/Time
EST
Temp
°C
App
Temp
°C
Dew
Point
°C
Rel
Hum
%
Delta-T
°C
Wind Press
QNH
hPa
Press
MSL
hPa
Rain since
9am
mm
Dir  Spd
km/h
Gust
km/h
Spd
kts
Gust
kts
22/11:30pm 17.1 15.5 13.8 81 1.9 WNW 15 - 8 - 1027.9 1027.9 0.0
22/11:00pm 17.5 15.6 14.2 81 1.9 WNW 17 - 9 - 1027.8 1027.8 0.0
22/10:30pm 18.2 18.2 15.1 82 1.8 W 9 - 5 - 1028.0 1028.0 0.0
22/10:00pm 18.3 17.8 15.0 81 1.9 WNW 11 - 6 - 1027.9 1027.9 0.0
22/09:30pm 18.8 18.8 15.3 80 2.1 WSW 9 - 5 - 1028.2 1028.2 0.0
22/09:00pm 19.2 19.8 15.7 80 2.1 WSW 7 - 4 - 1028.0 1028.0 0.0
22/08:30pm 19.4 18.5 15.9 80 2.1 SW 15 - 8 - 1027.8 1027.8 0.0
22/08:00pm 19.3 19.1 15.8 80 2.1 SW 11 - 6 - 1027.6 1027.5 0.0
22/07:30pm 19.7 20.4 16.0 79 2.2 SSW 7 - 4 - 1027.5 1027.4 0.0
22/07:00pm 19.7 20.8 15.6 77 2.4 SSW 4 - 2 - 1027.5 1027.4 0.0
22/06:30pm 20.2 20.6 15.4 74 2.8 SSW 7 - 4 - 1027.2 1027.1 0.0
22/06:00pm 20.6 21.0 15.4 72 3.1 SSE 7 - 4 - 1027.0 1026.9 0.0
22/05:30pm 20.5 20.7 14.8 70 3.3 SSE 7 - 4 - 1026.7 1026.6 0.0
22/05:00pm 20.8 20.4 14.2 66 3.8 SSE 9 - 5 - 1026.5 1026.4 0.0
22/04:30pm 21.2 21.1 13.9 63 4.2 SE 7 - 4 - 1026.3 1026.2 0.0
22/04:00pm 21.9 20.9 13.3 58 4.9 SE 11 - 6 - 1026.2 1026.1 0.0
22/03:30pm 23.0 21.5 13.2 54 5.7 SE 13 - 7 - 1026.0 1025.9 0.0
22/03:00pm 24.1 22.4 13.6 52 6.1 SE 15 - 8 - 1026.0 1025.9 0.0
22/02:30pm 24.0 21.8 13.2 50 6.3 SE 17 - 9 - 1025.9 1025.8 0.0
22/02:00pm 24.1 21.8 13.0 50 6.4 SE 17 - 9 - 1026.0 1025.9 0.0
22/01:30pm 24.5 22.1 12.5 47 6.9 SE 17 - 9 - 1026.1 1026.0 0.0
22/01:00pm 25.1 23.8 13.6 49 6.7 SE 13 - 7 - 1026.3 1026.2 0.0
22/12:30pm 23.9 23.1 12.8 49 6.4 E 9 - 5 - 1026.6 1026.5 0.0
22/12:00pm 22.4 22.3 10.9 48 6.3 NE 2 - 1 - 1027.0 1026.9 0.0
22/11:30am 21.6 21.4 11.9 54 5.4 NW 4 - 2 - 1027.4 1027.3 0.0
22/11:00am 20.9 19.6 11.3 54 5.3 WNW 9 - 5 - 1027.8 1027.8 0.0
22/10:30am 19.1 16.8 10.6 58 4.6 WNW 13 - 7 - 1028.0 1028.0 0.0
22/10:00am 18.5 16.8 11.1 62 4.0 WNW 11 - 6 - 1028.1 1028.1 0.0
22/09:30am 17.3 15.1 10.9 66 3.4 WNW 13 - 7 - 1028.1 1028.1 0.0
22/09:00am 16.3 13.3 10.8 70 2.9 WNW 17 - 9 - 1028.1 1028.1 0.0
22/08:30am 15.7 13.5 10.7 72 2.7 W 13 - 7 - 1028.0 1028.0 0.0
22/08:00am 15.4 12.9 11.2 76 2.2 WNW 15 - 8 - 1027.9 1027.9 0.0
22/07:30am 15.2 13.2 11.4 78 2.0 WNW 13 - 7 - 1027.6 1027.5 0.0
22/07:00am 14.8 11.5 10.8 77 2.1 W 19 - 10 - 1027.3 1027.2 0.0
22/06:30am 14.7 11.3 10.5 76 2.2 W 19 - 10 - 1026.9 1026.8 0.0
22/06:00am 15.1 11.2 10.9 76 2.2 W 22 - 12 - 1026.5 1026.4 0.0
22/05:30am 15.2 11.6 10.6 74 2.4 W 20 - 11 - 1026.2 1026.1 0.0
22/05:00am 15.0 11.8 11.2 78 2.0 W 19 - 10 - 1025.8 1025.7 0.0
22/04:30am 15.3 12.1 11.3 77 2.1 W 19 - 10 - 1025.6 1025.5 0.0
22/04:00am 15.6 12.3 10.8 73 2.5 W 19 - 10 - 1025.5 1025.4 0.0
22/03:30am 15.5 12.3 11.3 76 2.3 W 19 - 10 - 1025.5 1025.4 0.0
22/03:00am 15.6 12.3 11.6 77 2.1 WNW 20 - 11 - 1025.5 1025.4 0.0
22/02:30am 16.0 12.8 11.4 74 2.5 W 19 - 10 - 1025.6 1025.5 0.0
22/02:00am 16.2 13.0 11.4 73 2.6 WNW 19 - 10 - 1025.5 1025.4 0.0
22/01:30am 16.7 13.5 11.2 70 3.0 WNW 19 - 10 - 1025.5 1025.4 0.0
22/01:00am 17.0 14.3 10.4 65 3.5 W 15 - 8 - 1025.4 1025.3 0.0
22/12:30am 17.2 14.5 10.3 64 3.7 W 15 - 8 - 1025.5 1025.4 0.0
22/12:00am 17.3 14.7 10.7 65 3.5 W 15 - 8 - 1025.5 1025.4 0.0
 
Date/Time
EST
Temp
°C
App
Temp
°C
Dew
Point
°C
Rel
Hum
%
Delta-T
°C
Wind Press
QNH
hPa
Press
MSL
hPa
Rain since
9am
mm
Dir  Spd
km/h
Gust
km/h
Spd
kts
Gust
kts
21/11:30pm 17.3 14.9 11.3 68 3.3 W 15 - 8 - 1025.5 1025.4 0.0
21/11:00pm 17.8 15.7 11.1 65 3.6 W 13 - 7 - 1025.6 1025.5 0.0
21/10:30pm 18.6 16.4 10.7 60 4.3 W 13 - 7 - 1025.5 1025.4 0.0
21/10:00pm 18.9 17.4 10.7 59 4.4 W 9 - 5 - 1025.4 1025.3 0.0
21/09:30pm 19.4 19.3 10.9 58 4.6 NW 2 - 1 - 1025.3 1025.2 0.0
21/09:00pm 19.1 19.1 11.2 60 4.3 N 2 - 1 - 1025.2 1025.1 0.0
21/08:30pm 19.7 17.9 10.9 57 4.8 WNW 11 - 6 - 1025.2 1025.1 0.0
21/08:00pm 20.7 20.6 10.8 53 5.4 ENE 2 - 1 - 1025.0 1024.9 0.0
21/07:30pm 21.5 21.4 10.9 51 5.8 ENE 2 - 1 - 1024.7 1024.6 0.0
21/07:00pm 21.2 20.8 11.2 53 5.5 ESE 4 - 2 - 1024.5 1024.4 0.0
21/06:30pm 21.7 21.4 11.4 52 5.7 ESE 4 - 2 - 1024.2 1024.1 0.0
21/06:00pm 22.1 22.0 12.1 53 5.6 N 4 - 2 - 1023.9 1023.8 0.0
21/05:30pm 22.3 21.9 12.3 53 5.7 E 6 - 3 - 1023.6 1023.5 0.0
21/05:00pm 22.5 22.3 11.9 51 6.0 ENE 4 - 2 - 1023.3 1023.2 0.0
21/04:30pm 22.7 22.1 13.5 56 5.3 E 9 - 5 - 1023.2 1023.1 0.0
21/04:00pm 23.5 22.6 11.5 47 6.7 E 7 - 4 - 1022.9 1022.8 0.0
21/03:30pm 23.6 22.4 11.6 47 6.8 E 9 - 5 - 1022.9 1022.8 0.0
21/03:00pm 24.8 22.0 9.9 39 8.2 E 15 - 8 - 1022.8 1022.7 0.0
21/02:30pm 27.1 24.8 9.0 32 9.9 ESE 11 - 6 - 1022.7 1022.6 0.0
21/02:00pm 26.4 25.0 9.7 35 9.2 WNW 7 - 4 - 1022.9 1022.8 0.0
21/01:30pm 25.8 24.5 9.2 35 9.1 WNW 6 - 3 - 1023.2 1023.1 0.0
21/01:00pm 24.9 22.9 8.8 36 8.7 WNW 9 - 5 - 1023.6 1023.5 0.0

Latest Capital City Observations: Canberra | Sydney | Melbourne | Brisbane | Adelaide | Perth | Hobart | Darwin

Other formats

Comma delimited format used in spreadsheet applications
http://www.bom.gov.au/fwo/IDN60901/IDN60901.94768.axf

JavaScript Object Notation format (JSON) in row-major order
http://www.bom.gov.au/fwo/IDN60901/IDN60901.94768.json

Data quality

Most of these data are generated automatically and are frequently updated. Quality checks on data are not normally performed. It is possible for incorrect values to appear. Refer to information at About Latest Weather Observations and please check the disclaimer before using these data.